Misión y Visión

La misión es proporcionar información fiable a la navegación aérea, contribuyendo a la seguridad, regularidad y eficiencia de la Navegación Aérea Internacional

La visión es contribuir sustancialmente al desarrollo de conocimientos y a la utilización de la meteorología aeronáutica a nivel nacional e internacional, mediante la innovación y la coparticipación con sectores sociales y productivos de la sociedad.

 
  Inicio
  Metar
  Taf
  Wintemp
  SIGMET
  Avisos
  Pronósticos
  Carpeta Meteorologica
  Imágenes Satelitales
  Climatología Aeronáutica
   
  ¿Quienes Somos?
  Contacto
  Eventos
  Publicaciones
  Politica de la Calidad



DIRECCIONES PARA INFORMES NACIONALES E INTERNACIONALES
(Metar /Speci - TAF)



http://adds.aviationweather.gov/tafs/index.php

http://www.ogimet.com/metars.phtml



PRONÓSTICOS DE AERÓDROMO

Cuando sea necesario, el encabezamiento abreviado puede incluir un cuarto grupo consistente en tres letras para identificar los boletines demorados (RRA), corregidos(CCA) o enmendados (AAA). Los boletines adicionales demorados, corregidos o enmendados deben identificarse con las letras RRB, RRC, etc.; CCB, CCC,etc.;AAB, AAC,etc.



ESTACIONES DESCRIPCION  
MPTO (M)080200Z 00000KT 9999 FEW020 26/19 Q1012 NOSIG  
MPBO (M)080100Z 00000KT 9999 FEW018 SCT090 Q1016=  
MPCH (M)080100Z 000000KT 9999 FEW030 SCT100 Q1017=  
MPSA (M)072300Z NIL=  
MPCE (M)072300Z NIL=  
MPPN  
MPSM  
MPJE  
MPPA (M)080300Z 01010KT 9999 FEW020 24/18 Q1013=  
MPMG (M)080300Z 33006KT(E) CAVOK 26/21 Q1013 NOSIG=  
MPDA (M)080200Z 03010G20KT(E) C A V O K //// Q1008=  
MPVR  
MPWN  
MPOA  
MPMF  
MPEJ  

 

 

 

CLIMATICAS

MPTO

07-02-2016

PCPN

T° MAX

T° MIN

VIENTO MAX (KT)

HORA

VIENTO PREDOM (KT)

0.0

34.3

19.8

31022KT

1900Z

NE 12KT

CLIMATICAS

MPMG

07-02-2016

PCPN

T° MAX

T° MIN

VIENTO MAX (KT)

HORA

VIENTO PREDOM (KT)

0.0

33.0

24.2

36018G28KT

1800Z

NW

 

 
 























  Noticias AAC
  Directorio
  Contáctenos
  Historia
  Quejas y Sugerencias
  Etica y Transparencia

  Gestión SSP/SMS
  Seguridad Aérea
  Navegación Aérea
  Transporte Aéreo

  Tramites
  Áeronaves de Alquiler

  Meteorología
  I.S.F.P.A
  Notam
  Peligro Aviario
  AVSEC
  UPIA
  Permisos
 




DECLARACIÓN DE PRIVACIDAD